sensor_id;sensor_type;location;lat;lon;timestamp;P1;durP1;ratioP1;P2;durP2;ratioP2
31818;SDS011;18384;48.860;9.188;2023-01-24T00:00:42;23.62;;;14.18;;
31818;SDS011;18384;48.860;9.188;2023-01-24T00:03:09;22.13;;;13.30;;
31818;SDS011;18384;48.860;9.188;2023-01-24T00:05:40;22.33;;;14.20;;
31818;SDS011;18384;48.860;9.188;2023-01-24T00:08:09;23.48;;;14.75;;
31818;SDS011;18384;48.860;9.188;2023-01-24T00:10:38;22.67;;;14.65;;
31818;SDS011;18384;48.860;9.188;2023-01-24T00:13:04;21.95;;;14.45;;
31818;SDS011;18384;48.860;9.188;2023-01-24T00:15:32;21.27;;;12.80;;
31818;SDS011;18384;48.860;9.188;2023-01-24T00:17:58;26.52;;;14.80;;
31818;SDS011;18384;48.860;9.188;2023-01-24T00:20:25;24.83;;;14.48;;
31818;SDS011;18384;48.860;9.188;2023-01-24T00:22:51;22.65;;;14.27;;
31818;SDS011;18384;48.860;9.188;2023-01-24T00:25:17;28.40;;;15.40;;
31818;SDS011;18384;48.860;9.188;2023-01-24T00:27:44;21.92;;;14.13;;
31818;SDS011;18384;48.860;9.188;2023-01-24T00:30:10;23.92;;;14.90;;
31818;SDS011;18384;48.860;9.188;2023-01-24T00:35:02;26.67;;;14.82;;
31818;SDS011;18384;48.860;9.188;2023-01-24T00:37:29;23.85;;;14.50;;
31818;SDS011;18384;48.860;9.188;2023-01-24T00:39:55;25.33;;;15.07;;
31818;SDS011;18384;48.860;9.188;2023-01-24T00:42:22;25.62;;;14.35;;
31818;SDS011;18384;48.860;9.188;2023-01-24T00:44:48;24.85;;;15.07;;
31818;SDS011;18384;48.860;9.188;2023-01-24T00:49:40;28.10;;;15.65;;
31818;SDS011;18384;48.860;9.188;2023-01-24T00:52:06;25.75;;;15.18;;
31818;SDS011;18384;48.860;9.188;2023-01-24T00:54:32;25.17;;;15.65;;
31818;SDS011;18384;48.860;9.188;2023-01-24T00:56:58;25.98;;;16.23;;
31818;SDS011;18384;48.860;9.188;2023-01-24T00:59:24;26.58;;;16.50;;
31818;SDS011;18384;48.860;9.188;2023-01-24T01:01:51;32.67;;;16.42;;
31818;SDS011;18384;48.860;9.188;2023-01-24T01:04:17;26.83;;;15.98;;
31818;SDS011;18384;48.860;9.188;2023-01-24T01:06:43;25.02;;;16.10;;
31818;SDS011;18384;48.860;9.188;2023-01-24T01:09:10;26.33;;;16.17;;
31818;SDS011;18384;48.860;9.188;2023-01-24T01:11:36;26.40;;;15.68;;
31818;SDS011;18384;48.860;9.188;2023-01-24T01:14:07;31.33;;;16.73;;
31818;SDS011;18384;48.860;9.188;2023-01-24T01:16:34;28.05;;;16.20;;
31818;SDS011;18384;48.860;9.188;2023-01-24T01:19:04;28.85;;;17.35;;
31818;SDS011;18384;48.860;9.188;2023-01-24T01:21:31;28.20;;;17.42;;
31818;SDS011;18384;48.860;9.188;2023-01-24T01:26:23;25.50;;;15.75;;
31818;SDS011;18384;48.860;9.188;2023-01-24T01:31:17;29.40;;;16.52;;
31818;SDS011;18384;48.860;9.188;2023-01-24T01:33:43;26.30;;;15.90;;
31818;SDS011;18384;48.860;9.188;2023-01-24T01:36:09;28.30;;;15.68;;
31818;SDS011;18384;48.860;9.188;2023-01-24T01:38:36;30.42;;;15.93;;
31818;SDS011;18384;48.860;9.188;2023-01-24T01:41:02;29.45;;;16.35;;
31818;SDS011;18384;48.860;9.188;2023-01-24T01:43:29;28.20;;;16.65;;
31818;SDS011;18384;48.860;9.188;2023-01-24T01:46:01;31.83;;;17.23;;
31818;SDS011;18384;48.860;9.188;2023-01-24T01:48:48;30.27;;;16.50;;
31818;SDS011;18384;48.860;9.188;2023-01-24T01:51:37;28.70;;;16.17;;
31818;SDS011;18384;48.860;9.188;2023-01-24T01:54:12;30.52;;;16.98;;
31818;SDS011;18384;48.860;9.188;2023-01-24T01:56:46;32.13;;;17.80;;
31818;SDS011;18384;48.860;9.188;2023-01-24T01:59:29;25.40;;;15.50;;
31818;SDS011;18384;48.860;9.188;2023-01-24T02:02:01;27.87;;;16.25;;
31818;SDS011;18384;48.860;9.188;2023-01-24T02:04:30;30.48;;;17.58;;
31818;SDS011;18384;48.860;9.188;2023-01-24T02:07:13;33.65;;;17.70;;
31818;SDS011;18384;48.860;9.188;2023-01-24T02:10:45;31.25;;;15.85;;
31818;SDS011;18384;48.860;9.188;2023-01-24T02:13:31;32.40;;;17.02;;
31818;SDS011;18384;48.860;9.188;2023-01-24T02:15:57;28.25;;;16.98;;
31818;SDS011;18384;48.860;9.188;2023-01-24T02:18:30;28.38;;;16.60;;
31818;SDS011;18384;48.860;9.188;2023-01-24T02:20:58;26.20;;;15.55;;
31818;SDS011;18384;48.860;9.188;2023-01-24T02:26:32;27.52;;;15.32;;
31818;SDS011;18384;48.860;9.188;2023-01-24T02:29:05;28.52;;;16.55;;
31818;SDS011;18384;48.860;9.188;2023-01-24T02:34:25;30.42;;;16.67;;
31818;SDS011;18384;48.860;9.188;2023-01-24T02:36:56;27.50;;;15.38;;
31818;SDS011;18384;48.860;9.188;2023-01-24T02:39:30;27.87;;;15.68;;
31818;SDS011;18384;48.860;9.188;2023-01-24T02:42:24;30.90;;;16.83;;
31818;SDS011;18384;48.860;9.188;2023-01-24T02:45:05;28.12;;;16.23;;
31818;SDS011;18384;48.860;9.188;2023-01-24T02:47:53;29.10;;;16.52;;
31818;SDS011;18384;48.860;9.188;2023-01-24T02:50:22;30.05;;;16.33;;
31818;SDS011;18384;48.860;9.188;2023-01-24T02:52:54;29.50;;;16.23;;
31818;SDS011;18384;48.860;9.188;2023-01-24T02:55:39;27.85;;;16.45;;
31818;SDS011;18384;48.860;9.188;2023-01-24T02:58:24;28.38;;;15.90;;
31818;SDS011;18384;48.860;9.188;2023-01-24T03:00:51;30.27;;;16.67;;
31818;SDS011;18384;48.860;9.188;2023-01-24T03:03:18;31.37;;;16.75;;
31818;SDS011;18384;48.860;9.188;2023-01-24T03:05:44;24.75;;;15.18;;
31818;SDS011;18384;48.860;9.188;2023-01-24T03:08:23;28.08;;;16.00;;
31818;SDS011;18384;48.860;9.188;2023-01-24T03:10:55;27.13;;;15.07;;
31818;SDS011;18384;48.860;9.188;2023-01-24T03:13:22;27.25;;;15.48;;
31818;SDS011;18384;48.860;9.188;2023-01-24T03:16:07;27.87;;;15.77;;
31818;SDS011;18384;48.860;9.188;2023-01-24T03:18:52;28.75;;;14.95;;
31818;SDS011;18384;48.860;9.188;2023-01-24T03:21:37;26.85;;;15.80;;
31818;SDS011;18384;48.860;9.188;2023-01-24T03:24:22;25.83;;;15.00;;
31818;SDS011;18384;48.860;9.188;2023-01-24T03:27:07;27.10;;;15.30;;
31818;SDS011;18384;48.860;9.188;2023-01-24T03:29:53;27.37;;;16.45;;
31818;SDS011;18384;48.860;9.188;2023-01-24T03:32:38;26.12;;;15.30;;
31818;SDS011;18384;48.860;9.188;2023-01-24T03:35:23;29.90;;;15.80;;
31818;SDS011;18384;48.860;9.188;2023-01-24T03:37:49;30.92;;;16.70;;
31818;SDS011;18384;48.860;9.188;2023-01-24T03:40:34;30.73;;;15.70;;
31818;SDS011;18384;48.860;9.188;2023-01-24T03:43:00;28.23;;;15.95;;
31818;SDS011;18384;48.860;9.188;2023-01-24T03:45:32;26.90;;;15.68;;
31818;SDS011;18384;48.860;9.188;2023-01-24T03:48:01;28.15;;;15.38;;
31818;SDS011;18384;48.860;9.188;2023-01-24T03:50:42;23.38;;;14.57;;
31818;SDS011;18384;48.860;9.188;2023-01-24T03:53:28;28.85;;;16.30;;
31818;SDS011;18384;48.860;9.188;2023-01-24T03:55:57;29.60;;;16.08;;
31818;SDS011;18384;48.860;9.188;2023-01-24T03:58:28;29.42;;;15.82;;
31818;SDS011;18384;48.860;9.188;2023-01-24T04:00:56;29.45;;;16.87;;
31818;SDS011;18384;48.860;9.188;2023-01-24T04:03:22;28.12;;;15.70;;
31818;SDS011;18384;48.860;9.188;2023-01-24T04:05:49;31.45;;;16.62;;
31818;SDS011;18384;48.860;9.188;2023-01-24T04:08:16;30.15;;;15.98;;
31818;SDS011;18384;48.860;9.188;2023-01-24T04:10:43;26.05;;;15.27;;
31818;SDS011;18384;48.860;9.188;2023-01-24T04:15:36;26.63;;;16.37;;
31818;SDS011;18384;48.860;9.188;2023-01-24T04:18:04;25.92;;;15.50;;
31818;SDS011;18384;48.860;9.188;2023-01-24T04:20:32;28.67;;;15.80;;
31818;SDS011;18384;48.860;9.188;2023-01-24T04:23:02;31.02;;;15.88;;
31818;SDS011;18384;48.860;9.188;2023-01-24T04:25:31;27.65;;;15.30;;
31818;SDS011;18384;48.860;9.188;2023-01-24T04:27:58;28.05;;;16.02;;
31818;SDS011;18384;48.860;9.188;2023-01-24T04:30:25;31.77;;;16.12;;
31818;SDS011;18384;48.860;9.188;2023-01-24T04:32:51;29.77;;;16.62;;
31818;SDS011;18384;48.860;9.188;2023-01-24T04:35:18;27.10;;;16.23;;
31818;SDS011;18384;48.860;9.188;2023-01-24T04:37:48;32.30;;;16.95;;
31818;SDS011;18384;48.860;9.188;2023-01-24T04:40:15;30.30;;;17.58;;
31818;SDS011;18384;48.860;9.188;2023-01-24T04:45:07;33.72;;;18.10;;
31818;SDS011;18384;48.860;9.188;2023-01-24T04:47:35;33.28;;;16.50;;
31818;SDS011;18384;48.860;9.188;2023-01-24T04:50:01;32.38;;;17.73;;
31818;SDS011;18384;48.860;9.188;2023-01-24T04:52:27;31.98;;;17.75;;
31818;SDS011;18384;48.860;9.188;2023-01-24T04:54:53;33.17;;;18.48;;
31818;SDS011;18384;48.860;9.188;2023-01-24T04:57:19;32.38;;;18.35;;
31818;SDS011;18384;48.860;9.188;2023-01-24T04:59:45;34.03;;;19.35;;
31818;SDS011;18384;48.860;9.188;2023-01-24T05:02:11;32.45;;;19.02;;
31818;SDS011;18384;48.860;9.188;2023-01-24T05:04:38;36.58;;;17.65;;
31818;SDS011;18384;48.860;9.188;2023-01-24T05:07:04;31.77;;;17.35;;
31818;SDS011;18384;48.860;9.188;2023-01-24T05:09:30;34.25;;;17.20;;
31818;SDS011;18384;48.860;9.188;2023-01-24T05:11:56;34.45;;;19.77;;
31818;SDS011;18384;48.860;9.188;2023-01-24T05:14:22;33.70;;;18.85;;
31818;SDS011;18384;48.860;9.188;2023-01-24T05:16:48;33.47;;;19.58;;
31818;SDS011;18384;48.860;9.188;2023-01-24T05:19:15;30.50;;;17.98;;
31818;SDS011;18384;48.860;9.188;2023-01-24T05:21:41;30.92;;;17.40;;
31818;SDS011;18384;48.860;9.188;2023-01-24T05:24:07;31.30;;;18.33;;
31818;SDS011;18384;48.860;9.188;2023-01-24T05:26:33;35.75;;;18.15;;
31818;SDS011;18384;48.860;9.188;2023-01-24T05:28:59;32.20;;;17.77;;
31818;SDS011;18384;48.860;9.188;2023-01-24T05:31:25;35.33;;;17.65;;
31818;SDS011;18384;48.860;9.188;2023-01-24T05:33:51;36.03;;;19.00;;
31818;SDS011;18384;48.860;9.188;2023-01-24T05:36:19;35.03;;;17.02;;
31818;SDS011;18384;48.860;9.188;2023-01-24T05:38:48;32.00;;;17.00;;
31818;SDS011;18384;48.860;9.188;2023-01-24T05:41:16;34.75;;;17.02;;
31818;SDS011;18384;48.860;9.188;2023-01-24T05:43:44;29.95;;;16.98;;
31818;SDS011;18384;48.860;9.188;2023-01-24T05:46:16;33.35;;;17.15;;
31818;SDS011;18384;48.860;9.188;2023-01-24T05:48:46;32.95;;;17.12;;
31818;SDS011;18384;48.860;9.188;2023-01-24T05:51:15;29.87;;;17.40;;
31818;SDS011;18384;48.860;9.188;2023-01-24T05:53:44;30.92;;;17.27;;
31818;SDS011;18384;48.860;9.188;2023-01-24T05:56:12;35.40;;;17.60;;
31818;SDS011;18384;48.860;9.188;2023-01-24T05:58:42;35.53;;;17.55;;
31818;SDS011;18384;48.860;9.188;2023-01-24T06:01:10;35.25;;;18.20;;
31818;SDS011;18384;48.860;9.188;2023-01-24T06:03:46;32.60;;;17.80;;
31818;SDS011;18384;48.860;9.188;2023-01-24T06:06:15;30.08;;;17.23;;
31818;SDS011;18384;48.860;9.188;2023-01-24T06:08:44;32.83;;;17.08;;
31818;SDS011;18384;48.860;9.188;2023-01-24T06:11:12;34.97;;;18.27;;
31818;SDS011;18384;48.860;9.188;2023-01-24T06:13:41;33.92;;;18.15;;
31818;SDS011;18384;48.860;9.188;2023-01-24T06:16:19;33.83;;;19.08;;
31818;SDS011;18384;48.860;9.188;2023-01-24T06:18:48;35.10;;;18.12;;
31818;SDS011;18384;48.860;9.188;2023-01-24T06:27:14;32.25;;;16.85;;
31818;SDS011;18384;48.860;9.188;2023-01-24T06:36:45;32.15;;;16.55;;
31818;SDS011;18384;48.860;9.188;2023-01-24T06:39:39;31.12;;;16.35;;
31818;SDS011;18384;48.860;9.188;2023-01-24T06:42:15;32.03;;;18.25;;
31818;SDS011;18384;48.860;9.188;2023-01-24T06:44:42;34.20;;;17.98;;
31818;SDS011;18384;48.860;9.188;2023-01-24T06:47:12;27.08;;;16.42;;
31818;SDS011;18384;48.860;9.188;2023-01-24T06:49:39;33.45;;;17.73;;
31818;SDS011;18384;48.860;9.188;2023-01-24T06:52:05;33.03;;;17.87;;
31818;SDS011;18384;48.860;9.188;2023-01-24T06:54:32;35.03;;;18.05;;
31818;SDS011;18384;48.860;9.188;2023-01-24T06:57:00;33.50;;;17.37;;
31818;SDS011;18384;48.860;9.188;2023-01-24T06:59:27;38.13;;;17.80;;
31818;SDS011;18384;48.860;9.188;2023-01-24T07:01:53;36.50;;;18.42;;
31818;SDS011;18384;48.860;9.188;2023-01-24T07:04:19;35.58;;;16.23;;
31818;SDS011;18384;48.860;9.188;2023-01-24T07:06:45;31.87;;;17.25;;
31818;SDS011;18384;48.860;9.188;2023-01-24T07:09:12;35.45;;;18.58;;
31818;SDS011;18384;48.860;9.188;2023-01-24T07:11:38;41.55;;;17.60;;
31818;SDS011;18384;48.860;9.188;2023-01-24T07:14:04;35.65;;;17.45;;
31818;SDS011;18384;48.860;9.188;2023-01-24T07:16:30;29.87;;;16.58;;
31818;SDS011;18384;48.860;9.188;2023-01-24T07:18:56;36.70;;;17.12;;
31818;SDS011;18384;48.860;9.188;2023-01-24T07:21:23;31.00;;;16.55;;
31818;SDS011;18384;48.860;9.188;2023-01-24T07:23:49;31.65;;;17.08;;
31818;SDS011;18384;48.860;9.188;2023-01-24T07:26:20;32.45;;;16.92;;
31818;SDS011;18384;48.860;9.188;2023-01-24T07:28:47;35.20;;;18.62;;
31818;SDS011;18384;48.860;9.188;2023-01-24T07:31:13;34.85;;;16.92;;
31818;SDS011;18384;48.860;9.188;2023-01-24T07:33:40;33.67;;;18.12;;
31818;SDS011;18384;48.860;9.188;2023-01-24T07:36:10;37.85;;;18.08;;
31818;SDS011;18384;48.860;9.188;2023-01-24T07:38:38;33.83;;;17.55;;
31818;SDS011;18384;48.860;9.188;2023-01-24T07:41:08;30.25;;;17.25;;
31818;SDS011;18384;48.860;9.188;2023-01-24T07:43:35;32.00;;;16.27;;
31818;SDS011;18384;48.860;9.188;2023-01-24T07:46:01;35.15;;;18.85;;
31818;SDS011;18384;48.860;9.188;2023-01-24T07:48:28;38.65;;;18.35;;
31818;SDS011;18384;48.860;9.188;2023-01-24T07:50:57;32.25;;;16.83;;
31818;SDS011;18384;48.860;9.188;2023-01-24T07:53:25;35.65;;;17.98;;
31818;SDS011;18384;48.860;9.188;2023-01-24T07:55:51;38.03;;;19.40;;
31818;SDS011;18384;48.860;9.188;2023-01-24T07:58:17;41.28;;;19.20;;
31818;SDS011;18384;48.860;9.188;2023-01-24T08:00:43;41.50;;;19.62;;
31818;SDS011;18384;48.860;9.188;2023-01-24T08:03:10;37.50;;;19.37;;
31818;SDS011;18384;48.860;9.188;2023-01-24T08:05:36;38.38;;;18.95;;
31818;SDS011;18384;48.860;9.188;2023-01-24T08:08:03;41.05;;;18.73;;
31818;SDS011;18384;48.860;9.188;2023-01-24T08:10:29;32.28;;;16.98;;
31818;SDS011;18384;48.860;9.188;2023-01-24T08:12:55;34.25;;;18.00;;
31818;SDS011;18384;48.860;9.188;2023-01-24T08:15:21;41.37;;;18.48;;
31818;SDS011;18384;48.860;9.188;2023-01-24T08:17:48;40.58;;;18.33;;
31818;SDS011;18384;48.860;9.188;2023-01-24T08:20:14;33.28;;;17.73;;
31818;SDS011;18384;48.860;9.188;2023-01-24T08:22:40;32.80;;;17.33;;
31818;SDS011;18384;48.860;9.188;2023-01-24T08:25:07;44.95;;;22.30;;
31818;SDS011;18384;48.860;9.188;2023-01-24T08:27:34;34.25;;;17.95;;
31818;SDS011;18384;48.860;9.188;2023-01-24T08:30:04;33.42;;;18.17;;
31818;SDS011;18384;48.860;9.188;2023-01-24T08:32:33;37.35;;;17.62;;
31818;SDS011;18384;48.860;9.188;2023-01-24T08:34:59;31.52;;;16.42;;
31818;SDS011;18384;48.860;9.188;2023-01-24T08:37:25;30.88;;;17.70;;
31818;SDS011;18384;48.860;9.188;2023-01-24T08:39:51;32.92;;;16.98;;
31818;SDS011;18384;48.860;9.188;2023-01-24T08:42:17;32.75;;;18.75;;
31818;SDS011;18384;48.860;9.188;2023-01-24T08:44:43;33.33;;;16.50;;
31818;SDS011;18384;48.860;9.188;2023-01-24T08:47:09;29.98;;;15.90;;
31818;SDS011;18384;48.860;9.188;2023-01-24T08:49:35;32.03;;;16.35;;
31818;SDS011;18384;48.860;9.188;2023-01-24T08:52:02;35.95;;;16.77;;
31818;SDS011;18384;48.860;9.188;2023-01-24T08:54:28;31.17;;;16.05;;
31818;SDS011;18384;48.860;9.188;2023-01-24T08:56:57;28.45;;;15.55;;
31818;SDS011;18384;48.860;9.188;2023-01-24T08:59:24;28.38;;;15.50;;
31818;SDS011;18384;48.860;9.188;2023-01-24T09:01:50;33.40;;;15.85;;
31818;SDS011;18384;48.860;9.188;2023-01-24T09:04:16;29.58;;;15.57;;
31818;SDS011;18384;48.860;9.188;2023-01-24T09:06:42;25.75;;;15.75;;
31818;SDS011;18384;48.860;9.188;2023-01-24T09:09:08;28.52;;;15.23;;
31818;SDS011;18384;48.860;9.188;2023-01-24T09:11:34;28.00;;;15.48;;
31818;SDS011;18384;48.860;9.188;2023-01-24T09:14:01;27.95;;;15.02;;
31818;SDS011;18384;48.860;9.188;2023-01-24T09:16:27;30.10;;;16.10;;
31818;SDS011;18384;48.860;9.188;2023-01-24T09:18:53;27.23;;;14.57;;
31818;SDS011;18384;48.860;9.188;2023-01-24T09:21:21;25.45;;;14.57;;
31818;SDS011;18384;48.860;9.188;2023-01-24T09:23:47;37.03;;;15.32;;
31818;SDS011;18384;48.860;9.188;2023-01-24T09:26:13;21.20;;;12.98;;
31818;SDS011;18384;48.860;9.188;2023-01-24T09:28:39;28.83;;;14.48;;
31818;SDS011;18384;48.860;9.188;2023-01-24T09:31:08;26.92;;;13.68;;
31818;SDS011;18384;48.860;9.188;2023-01-24T09:33:36;23.95;;;13.48;;
31818;SDS011;18384;48.860;9.188;2023-01-24T09:36:02;23.20;;;14.20;;
31818;SDS011;18384;48.860;9.188;2023-01-24T09:38:30;31.25;;;15.02;;
31818;SDS011;18384;48.860;9.188;2023-01-24T09:41:03;32.08;;;16.85;;
31818;SDS011;18384;48.860;9.188;2023-01-24T09:46:55;22.98;;;12.57;;
31818;SDS011;18384;48.860;9.188;2023-01-24T09:49:43;22.15;;;12.27;;
31818;SDS011;18384;48.860;9.188;2023-01-24T09:52:23;30.80;;;13.82;;
31818;SDS011;18384;48.860;9.188;2023-01-24T09:58:02;23.08;;;12.57;;
31818;SDS011;18384;48.860;9.188;2023-01-24T10:03:38;23.70;;;12.68;;
31818;SDS011;18384;48.860;9.188;2023-01-24T10:06:07;24.02;;;13.52;;
31818;SDS011;18384;48.860;9.188;2023-01-24T10:08:56;22.92;;;12.82;;
31818;SDS011;18384;48.860;9.188;2023-01-24T10:15:22;22.77;;;11.07;;
31818;SDS011;18384;48.860;9.188;2023-01-24T10:25:45;19.27;;;11.50;;
31818;SDS011;18384;48.860;9.188;2023-01-24T10:28:26;20.77;;;11.73;;
31818;SDS011;18384;48.860;9.188;2023-01-24T10:31:07;22.55;;;12.27;;
31818;SDS011;18384;48.860;9.188;2023-01-24T10:33:47;24.25;;;13.07;;
31818;SDS011;18384;48.860;9.188;2023-01-24T10:36:51;26.55;;;13.82;;
31818;SDS011;18384;48.860;9.188;2023-01-24T10:39:58;78.00;;;34.00;;
31818;SDS011;18384;48.860;9.188;2023-01-24T10:42:27;50.38;;;22.60;;
31818;SDS011;18384;48.860;9.188;2023-01-24T10:44:58;46.58;;;25.60;;
31818;SDS011;18384;48.860;9.188;2023-01-24T10:52:41;19.73;;;11.68;;
31818;SDS011;18384;48.860;9.188;2023-01-24T10:55:21;20.62;;;12.60;;
31818;SDS011;18384;48.860;9.188;2023-01-24T10:58:14;21.70;;;12.07;;
31818;SDS011;18384;48.860;9.188;2023-01-24T11:00:56;22.05;;;12.27;;
31818;SDS011;18384;48.860;9.188;2023-01-24T11:03:28;52.20;;;21.10;;
31818;SDS011;18384;48.860;9.188;2023-01-24T11:06:00;28.12;;;13.35;;
31818;SDS011;18384;48.860;9.188;2023-01-24T11:08:37;21.77;;;11.75;;
31818;SDS011;18384;48.860;9.188;2023-01-24T11:11:16;25.23;;;13.27;;
31818;SDS011;18384;48.860;9.188;2023-01-24T11:13:48;21.73;;;11.05;;
31818;SDS011;18384;48.860;9.188;2023-01-24T11:16:26;20.42;;;11.12;;
31818;SDS011;18384;48.860;9.188;2023-01-24T11:19:25;28.02;;;12.27;;
31818;SDS011;18384;48.860;9.188;2023-01-24T11:21:58;21.25;;;11.60;;
31818;SDS011;18384;48.860;9.188;2023-01-24T11:24:48;21.45;;;11.52;;
31818;SDS011;18384;48.860;9.188;2023-01-24T11:27:16;22.90;;;14.05;;
31818;SDS011;18384;48.860;9.188;2023-01-24T11:30:03;19.37;;;12.02;;
31818;SDS011;18384;48.860;9.188;2023-01-24T11:32:50;22.13;;;12.15;;
31818;SDS011;18384;48.860;9.188;2023-01-24T11:35:42;18.93;;;10.87;;
31818;SDS011;18384;48.860;9.188;2023-01-24T11:38:19;19.98;;;11.43;;
31818;SDS011;18384;48.860;9.188;2023-01-24T11:44:30;19.08;;;11.75;;
31818;SDS011;18384;48.860;9.188;2023-01-24T11:51:15;19.10;;;10.60;;
31818;SDS011;18384;48.860;9.188;2023-01-24T11:54:22;17.80;;;10.43;;
31818;SDS011;18384;48.860;9.188;2023-01-24T12:09:23;18.92;;;9.70;;
31818;SDS011;18384;48.860;9.188;2023-01-24T12:13:16;17.77;;;10.45;;
31818;SDS011;18384;48.860;9.188;2023-01-24T12:16:10;19.45;;;10.02;;
31818;SDS011;18384;48.860;9.188;2023-01-24T12:19:24;17.45;;;9.25;;
31818;SDS011;18384;48.860;9.188;2023-01-24T12:22:27;19.87;;;9.65;;
31818;SDS011;18384;48.860;9.188;2023-01-24T12:25:20;17.55;;;10.02;;
31818;SDS011;18384;48.860;9.188;2023-01-24T12:28:05;14.30;;;9.23;;
31818;SDS011;18384;48.860;9.188;2023-01-24T12:30:39;17.17;;;9.18;;
31818;SDS011;18384;48.860;9.188;2023-01-24T12:33:27;15.82;;;9.25;;
31818;SDS011;18384;48.860;9.188;2023-01-24T12:36:12;16.33;;;9.85;;
31818;SDS011;18384;48.860;9.188;2023-01-24T12:39:03;15.38;;;8.90;;
31818;SDS011;18384;48.860;9.188;2023-01-24T12:41:43;16.20;;;9.57;;
31818;SDS011;18384;48.860;9.188;2023-01-24T12:44:23;17.83;;;9.93;;
31818;SDS011;18384;48.860;9.188;2023-01-24T12:47:14;17.02;;;8.82;;
31818;SDS011;18384;48.860;9.188;2023-01-24T12:52:40;15.57;;;8.68;;
31818;SDS011;18384;48.860;9.188;2023-01-24T12:55:36;16.58;;;8.95;;
31818;SDS011;18384;48.860;9.188;2023-01-24T12:58:26;15.90;;;8.82;;
31818;SDS011;18384;48.860;9.188;2023-01-24T13:04:19;16.62;;;9.57;;
31818;SDS011;18384;48.860;9.188;2023-01-24T13:08:21;17.85;;;10.57;;
31818;SDS011;18384;48.860;9.188;2023-01-24T13:11:24;18.00;;;8.80;;
31818;SDS011;18384;48.860;9.188;2023-01-24T13:14:17;18.58;;;10.38;;
31818;SDS011;18384;48.860;9.188;2023-01-24T13:17:38;17.60;;;8.90;;
31818;SDS011;18384;48.860;9.188;2023-01-24T13:20:31;15.70;;;10.50;;
31818;SDS011;18384;48.860;9.188;2023-01-24T13:32:13;15.40;;;8.00;;
31818;SDS011;18384;48.860;9.188;2023-01-24T13:34:43;17.20;;;8.13;;
31818;SDS011;18384;48.860;9.188;2023-01-24T13:37:18;15.60;;;9.10;;
31818;SDS011;18384;48.860;9.188;2023-01-24T13:40:05;14.55;;;8.85;;
31818;SDS011;18384;48.860;9.188;2023-01-24T14:00:29;13.60;;;8.48;;
31818;SDS011;18384;48.860;9.188;2023-01-24T14:05:40;17.00;;;9.52;;
31818;SDS011;18384;48.860;9.188;2023-01-24T14:11:56;16.02;;;9.02;;
31818;SDS011;18384;48.860;9.188;2023-01-24T14:14:31;16.05;;;10.32;;
31818;SDS011;18384;48.860;9.188;2023-01-24T14:17:00;16.48;;;9.13;;
31818;SDS011;18384;48.860;9.188;2023-01-24T14:19:47;17.17;;;9.95;;
31818;SDS011;18384;48.860;9.188;2023-01-24T14:22:17;16.00;;;9.07;;
31818;SDS011;18384;48.860;9.188;2023-01-24T14:24:55;16.90;;;9.40;;
31818;SDS011;18384;48.860;9.188;2023-01-24T14:29:09;15.93;;;9.07;;
31818;SDS011;18384;48.860;9.188;2023-01-24T14:34:25;16.77;;;8.77;;
31818;SDS011;18384;48.860;9.188;2023-01-24T14:37:08;18.02;;;8.85;;
31818;SDS011;18384;48.860;9.188;2023-01-24T14:39:37;18.83;;;9.57;;
31818;SDS011;18384;48.860;9.188;2023-01-24T14:42:05;16.30;;;9.82;;
31818;SDS011;18384;48.860;9.188;2023-01-24T14:44:51;17.80;;;9.55;;
31818;SDS011;18384;48.860;9.188;2023-01-24T14:47:21;16.17;;;9.45;;
31818;SDS011;18384;48.860;9.188;2023-01-24T14:49:58;17.35;;;10.38;;
31818;SDS011;18384;48.860;9.188;2023-01-24T14:52:31;18.67;;;9.50;;
31818;SDS011;18384;48.860;9.188;2023-01-24T14:59:17;19.48;;;9.52;;
31818;SDS011;18384;48.860;9.188;2023-01-24T15:01:45;15.90;;;8.85;;
31818;SDS011;18384;48.860;9.188;2023-01-24T15:04:23;22.48;;;10.07;;
31818;SDS011;18384;48.860;9.188;2023-01-24T15:07:05;20.88;;;10.55;;
31818;SDS011;18384;48.860;9.188;2023-01-24T15:09:39;16.62;;;9.75;;
31818;SDS011;18384;48.860;9.188;2023-01-24T15:12:13;16.95;;;9.40;;
31818;SDS011;18384;48.860;9.188;2023-01-24T15:14:57;23.60;;;9.90;;
31818;SDS011;18384;48.860;9.188;2023-01-24T15:17:26;19.33;;;10.18;;
31818;SDS011;18384;48.860;9.188;2023-01-24T15:19:55;20.17;;;9.93;;
31818;SDS011;18384;48.860;9.188;2023-01-24T15:22:25;16.20;;;9.10;;
31818;SDS011;18384;48.860;9.188;2023-01-24T15:24:54;19.80;;;9.82;;
31818;SDS011;18384;48.860;9.188;2023-01-24T15:27:32;18.48;;;9.90;;
31818;SDS011;18384;48.860;9.188;2023-01-24T15:30:12;18.83;;;10.30;;
31818;SDS011;18384;48.860;9.188;2023-01-24T15:33:00;17.75;;;10.15;;
31818;SDS011;18384;48.860;9.188;2023-01-24T15:35:36;25.67;;;10.35;;
31818;SDS011;18384;48.860;9.188;2023-01-24T15:38:32;22.80;;;9.82;;
31818;SDS011;18384;48.860;9.188;2023-01-24T15:41:12;19.37;;;9.93;;
31818;SDS011;18384;48.860;9.188;2023-01-24T15:43:48;24.08;;;13.13;;
31818;SDS011;18384;48.860;9.188;2023-01-24T15:46:31;21.50;;;12.02;;
31818;SDS011;18384;48.860;9.188;2023-01-24T15:49:29;21.10;;;10.45;;
31818;SDS011;18384;48.860;9.188;2023-01-24T15:52:20;18.77;;;11.95;;
31818;SDS011;18384;48.860;9.188;2023-01-24T15:57:34;17.90;;;11.40;;
31818;SDS011;18384;48.860;9.188;2023-01-24T16:02:54;26.67;;;11.45;;
31818;SDS011;18384;48.860;9.188;2023-01-24T16:05:20;27.90;;;13.25;;
31818;SDS011;18384;48.860;9.188;2023-01-24T16:07:47;20.73;;;11.43;;
31818;SDS011;18384;48.860;9.188;2023-01-24T16:10:14;25.20;;;11.57;;
31818;SDS011;18384;48.860;9.188;2023-01-24T16:12:41;20.77;;;11.35;;
31818;SDS011;18384;48.860;9.188;2023-01-24T16:15:09;23.35;;;11.30;;
31818;SDS011;18384;48.860;9.188;2023-01-24T16:17:44;22.62;;;13.00;;
31818;SDS011;18384;48.860;9.188;2023-01-24T16:22:45;25.75;;;12.85;;
31818;SDS011;18384;48.860;9.188;2023-01-24T16:25:12;36.35;;;16.62;;
31818;SDS011;18384;48.860;9.188;2023-01-24T16:27:39;22.95;;;12.75;;
31818;SDS011;18384;48.860;9.188;2023-01-24T16:30:10;21.83;;;11.27;;
31818;SDS011;18384;48.860;9.188;2023-01-24T16:32:45;24.67;;;12.48;;
31818;SDS011;18384;48.860;9.188;2023-01-24T16:35:12;19.42;;;11.82;;
31818;SDS011;18384;48.860;9.188;2023-01-24T16:40:05;20.92;;;11.55;;
31818;SDS011;18384;48.860;9.188;2023-01-24T16:42:37;20.52;;;11.45;;
31818;SDS011;18384;48.860;9.188;2023-01-24T16:45:05;25.73;;;13.20;;
31818;SDS011;18384;48.860;9.188;2023-01-24T16:47:41;24.00;;;12.35;;
31818;SDS011;18384;48.860;9.188;2023-01-24T16:50:08;22.80;;;11.45;;
31818;SDS011;18384;48.860;9.188;2023-01-24T16:52:35;25.88;;;12.90;;
31818;SDS011;18384;48.860;9.188;2023-01-24T16:55:01;25.10;;;13.30;;
31818;SDS011;18384;48.860;9.188;2023-01-24T16:59:55;27.33;;;13.45;;
31818;SDS011;18384;48.860;9.188;2023-01-24T17:02:21;23.67;;;12.07;;
31818;SDS011;18384;48.860;9.188;2023-01-24T17:04:47;23.67;;;14.07;;
31818;SDS011;18384;48.860;9.188;2023-01-24T17:07:14;33.05;;;13.45;;
31818;SDS011;18384;48.860;9.188;2023-01-24T17:09:40;25.48;;;13.25;;
31818;SDS011;18384;48.860;9.188;2023-01-24T17:12:06;31.20;;;14.82;;
31818;SDS011;18384;48.860;9.188;2023-01-24T17:14:33;29.37;;;14.30;;
31818;SDS011;18384;48.860;9.188;2023-01-24T17:16:59;27.50;;;15.05;;
31818;SDS011;18384;48.860;9.188;2023-01-24T17:19:25;26.05;;;13.95;;